Time;durP1;ratioP1;P1;durP2;ratioP2;P2;SDS_P1;SDS_P2;PMS_P1;PMS_P2;Temp;Humidity;BMP_temperature;BMP_pressure;BME280_temperature;BME280_humidity;BME280_pressure;Samples;Min_cycle;Max_cycle;Signal;HPM_P1;HPM_P2
2022/07/05 00:00:59;;;;;;;4.05;2.80;;;14.40;99.90;;;;;;5018516;28;20041;-65
2022/07/05 00:03:25;;;;;;;5.97;3.20;;;14.40;99.90;;;;;;5027093;28;20030;-64
2022/07/05 00:05:51;;;;;;;4.80;3.13;;;14.60;99.90;;;;;;5021121;28;20063;-63
2022/07/05 00:08:17;;;;;;;5.97;3.75;;;14.30;99.90;;;;;;5029977;28;20037;-63
2022/07/05 00:10:42;;;;;;;5.50;3.20;;;14.30;99.90;;;;;;5027111;28;20046;-63
2022/07/05 00:13:08;;;;;;;5.93;3.50;;;14.20;99.90;;;;;;5030474;28;20111;-64
2022/07/05 00:15:34;;;;;;;4.95;3.78;;;14.20;99.90;;;;;;5028182;28;20049;-64
2022/07/05 00:17:59;;;;;;;5.03;3.20;;;14.10;99.90;;;;;;5023941;28;20547;-67
2022/07/05 00:20:26;;;;;;;10.10;4.00;;;14.10;99.90;;;;;;5027104;28;20484;-63
2022/07/05 00:22:51;;;;;;;6.10;3.13;;;14.10;99.90;;;;;;5031884;28;20037;-63
2022/07/05 00:25:17;;;;;;;5.85;3.55;;;14.10;99.90;;;;;;5030656;28;20171;-63
2022/07/05 00:27:43;;;;;;;5.93;3.83;;;14.00;99.90;;;;;;5035345;28;20041;-63
2022/07/05 00:30:09;;;;;;;6.40;4.10;;;14.10;99.90;;;;;;5021378;28;20041;-64
2022/07/05 00:32:36;;;;;;;5.55;3.90;;;14.00;99.90;;;;;;5031207;28;20044;-64
2022/07/05 00:35:02;;;;;;;5.45;3.53;;;14.00;99.90;;;;;;5020417;28;20046;-63
2022/07/05 00:37:27;;;;;;;4.80;3.50;;;13.90;99.90;;;;;;5025902;28;20503;-64
2022/07/05 00:39:53;;;;;;;7.05;3.80;;;13.90;99.90;;;;;;5031036;28;20055;-62
2022/07/05 00:42:18;;;;;;;4.32;3.30;;;13.90;99.90;;;;;;5030308;28;20496;-67
2022/07/05 00:44:44;;;;;;;5.25;3.50;;;13.80;99.90;;;;;;5021582;28;20045;-63
2022/07/05 00:47:11;;;;;;;5.13;3.60;;;13.80;99.90;;;;;;5022949;28;20037;-63
2022/07/05 00:49:39;;;;;;;5.05;3.40;;;13.80;99.90;;;;;;5035084;28;20058;-63
2022/07/05 00:52:05;;;;;;;5.72;3.40;;;13.70;99.90;;;;;;5006034;28;20049;-67
2022/07/05 00:54:34;;;;;;;4.85;3.53;;;13.70;99.90;;;;;;5014104;28;20049;-65
2022/07/05 00:57:00;;;;;;;3.72;3.33;;;13.70;99.90;;;;;;5020799;28;20080;-63
2022/07/05 00:59:27;;;;;;;5.03;3.20;;;13.70;99.90;;;;;;5029987;28;20465;-63
2022/07/05 01:01:53;;;;;;;5.38;3.50;;;13.70;99.90;;;;;;5018063;28;20038;-68
2022/07/05 01:04:19;;;;;;;3.78;3.10;;;13.70;99.90;;;;;;5019143;28;20095;-66
2022/07/05 01:06:48;;;;;;;5.30;3.50;;;13.70;99.90;;;;;;5027479;28;20042;-63
2022/07/05 01:09:16;;;;;;;4.88;3.53;;;13.70;99.90;;;;;;5023740;28;20037;-63
2022/07/05 01:11:46;;;;;;;4.05;3.20;;;13.60;99.90;;;;;;5022343;28;20141;-64
2022/07/05 01:14:15;;;;;;;4.65;3.30;;;13.60;99.90;;;;;;5021677;28;20041;-64
2022/07/05 01:16:40;;;;;;;4.97;3.47;;;13.60;99.90;;;;;;5010954;28;20050;-63
2022/07/05 01:19:06;;;;;;;4.45;3.30;;;13.60;99.90;;;;;;5017960;28;20045;-63
2022/07/05 01:21:37;;;;;;;6.57;3.35;;;13.60;99.90;;;;;;5033690;28;20495;-63
2022/07/05 01:24:03;;;;;;;5.30;3.80;;;13.50;99.90;;;;;;5027106;28;20037;-63
2022/07/05 01:26:30;;;;;;;5.20;3.88;;;13.50;99.90;;;;;;5019347;28;20107;-63
2022/07/05 01:28:56;;;;;;;5.10;3.50;;;13.50;99.90;;;;;;5025749;28;20454;-63
2022/07/05 01:31:22;;;;;;;3.75;3.20;;;13.50;99.90;;;;;;5018560;28;20053;-66
2022/07/05 01:33:47;;;;;;;5.68;3.55;;;13.50;99.90;;;;;;5026743;28;20519;-63
2022/07/05 01:36:13;;;;;;;4.60;3.40;;;13.40;99.90;;;;;;5023401;28;20534;-63
2022/07/05 01:38:40;;;;;;;5.43;3.70;;;13.40;99.90;;;;;;5031657;28;20377;-63
2022/07/05 01:41:07;;;;;;;4.30;3.22;;;13.40;99.90;;;;;;5029376;28;20588;-63
2022/07/05 01:43:33;;;;;;;4.22;3.10;;;13.40;99.90;;;;;;5032221;28;20523;-65
2022/07/05 01:46:01;;;;;;;4.88;3.70;;;13.40;99.90;;;;;;5032620;28;20044;-63
2022/07/05 01:48:34;;;;;;;5.18;3.95;;;13.40;99.90;;;;;;5022524;28;20096;-64
2022/07/05 01:51:22;;;;;;;5.00;3.60;;;13.30;99.90;;;;;;5028701;28;20485;-66
2022/07/05 01:53:51;;;;;;;6.97;4.20;;;13.30;99.90;;;;;;5024974;28;20045;-63
2022/07/05 01:56:17;;;;;;;5.43;4.28;;;13.30;99.90;;;;;;5032180;28;20446;-64
2022/07/05 01:58:44;;;;;;;6.20;4.90;;;13.30;99.90;;;;;;5021921;28;20042;-64
2022/07/05 02:01:09;;;;;;;5.78;4.10;;;13.30;99.90;;;;;;5025057;28;20041;-64
2022/07/05 02:03:36;;;;;;;7.32;4.70;;;13.30;99.90;;;;;;5028082;28;20119;-65
2022/07/05 02:06:02;;;;;;;5.97;4.55;;;13.20;99.90;;;;;;5029640;28;20125;-63
2022/07/05 02:08:30;;;;;;;5.93;4.18;;;13.30;99.90;;;;;;5028801;28;20132;-63
2022/07/05 02:10:57;;;;;;;6.18;4.82;;;13.30;99.90;;;;;;5022376;28;20046;-63
2022/07/05 02:13:23;;;;;;;7.45;4.60;;;13.30;99.90;;;;;;5018471;28;20042;-68
2022/07/05 02:15:49;;;;;;;5.20;3.97;;;13.30;99.90;;;;;;5028992;28;20121;-68
2022/07/05 02:18:14;;;;;;;5.93;4.00;;;13.30;99.90;;;;;;5039024;28;20040;-64
2022/07/05 02:20:41;;;;;;;4.55;3.60;;;13.20;99.90;;;;;;5039778;28;20049;-63
2022/07/05 02:23:07;;;;;;;4.57;3.70;;;13.20;99.90;;;;;;5020330;28;20046;-63
2022/07/05 02:25:33;;;;;;;5.70;4.00;;;13.20;99.90;;;;;;5028437;28;20041;-66
2022/07/05 02:28:00;;;;;;;7.78;4.75;;;13.20;99.90;;;;;;5025135;28;20044;-67
2022/07/05 02:30:26;;;;;;;6.40;4.60;;;13.10;99.90;;;;;;5023389;28;20424;-64
2022/07/05 02:32:51;;;;;;;6.18;4.80;;;13.10;99.90;;;;;;5019423;28;20057;-67
2022/07/05 02:35:17;;;;;;;5.70;4.40;;;13.10;99.90;;;;;;5029129;28;20052;-63
2022/07/05 02:37:43;;;;;;;6.18;4.82;;;13.10;99.90;;;;;;5017993;28;20045;-63
2022/07/05 02:40:13;;;;;;;6.20;4.82;;;13.10;99.90;;;;;;5021809;28;20037;-64
2022/07/05 02:42:39;;;;;;;6.93;5.00;;;13.10;99.90;;;;;;5028585;28;20039;-63
2022/07/05 02:45:06;;;;;;;6.43;5.10;;;13.10;99.90;;;;;;5021624;28;20566;-63
2022/07/05 02:47:33;;;;;;;7.03;5.30;;;13.10;99.90;;;;;;5032599;28;20148;-66
2022/07/05 02:50:03;;;;;;;6.50;4.65;;;13.10;99.90;;;;;;5018545;28;20053;-64
2022/07/05 02:52:28;;;;;;;5.35;3.25;;;13.00;99.90;;;;;;5027746;28;20046;-63
2022/07/05 02:54:54;;;;;;;2.97;2.20;;;13.00;99.90;;;;;;5030151;28;20045;-65
2022/07/05 02:57:20;;;;;;;3.88;2.03;;;12.90;99.90;;;;;;5032033;28;20077;-67
2022/07/05 02:59:45;;;;;;;3.03;2.20;;;12.90;99.90;;;;;;5038140;28;20041;-64
2022/07/05 03:02:11;;;;;;;4.50;2.72;;;12.90;99.90;;;;;;5027793;28;20052;-64
2022/07/05 03:04:37;;;;;;;3.38;2.70;;;12.80;99.90;;;;;;5024855;28;20037;-64
2022/07/05 03:07:02;;;;;;;4.43;3.08;;;12.80;99.90;;;;;;5020998;28;20060;-65
2022/07/05 03:09:28;;;;;;;4.88;3.95;;;12.80;99.90;;;;;;5026840;28;20030;-67
2022/07/05 03:11:54;;;;;;;7.20;5.00;;;12.80;99.90;;;;;;5018940;28;20125;-64
2022/07/05 03:14:20;;;;;;;6.70;4.68;;;12.90;99.90;;;;;;5017039;28;20037;-64
2022/07/05 03:16:45;;;;;;;7.00;5.88;;;12.80;99.90;;;;;;5016717;28;20120;-64
2022/07/05 03:19:11;;;;;;;8.15;5.30;;;12.80;99.90;;;;;;5030043;28;20042;-64
2022/07/05 03:21:37;;;;;;;7.82;5.82;;;12.80;99.90;;;;;;5030629;28;20037;-65
2022/07/05 03:24:03;;;;;;;8.00;5.72;;;12.80;99.90;;;;;;5030107;28;20038;-64
2022/07/05 03:26:31;;;;;;;8.00;6.03;;;12.80;99.90;;;;;;5033544;28;20200;-64
2022/07/05 03:28:57;;;;;;;8.23;6.45;;;12.90;99.90;;;;;;5030673;28;20048;-64
2022/07/05 03:31:22;;;;;;;8.43;5.88;;;12.80;99.90;;;;;;5028412;28;20388;-64
2022/07/05 03:33:48;;;;;;;7.63;6.50;;;12.80;99.90;;;;;;5021553;28;20038;-64
2022/07/05 03:36:14;;;;;;;9.50;6.63;;;12.90;99.90;;;;;;5025160;28;20045;-64
2022/07/05 03:38:39;;;;;;;9.50;6.80;;;12.90;99.90;;;;;;5025046;28;20041;-65
2022/07/05 03:41:05;;;;;;;8.90;7.13;;;12.90;99.90;;;;;;5025282;28;20034;-64
2022/07/05 03:43:30;;;;;;;10.30;7.60;;;12.90;99.90;;;;;;5031093;28;20053;-65
2022/07/05 03:45:56;;;;;;;9.32;6.85;;;12.90;99.90;;;;;;5030636;28;20040;-64
2022/07/05 03:48:22;;;;;;;9.88;7.57;;;12.90;99.90;;;;;;5017973;28;20100;-64
2022/07/05 03:50:47;;;;;;;7.97;7.18;;;12.90;99.90;;;;;;5016227;28;20115;-65
2022/07/05 03:53:13;;;;;;;9.50;7.07;;;12.90;99.90;;;;;;5025552;28;20037;-64
2022/07/05 03:55:39;;;;;;;8.70;6.82;;;12.90;99.90;;;;;;5026051;28;20485;-64
2022/07/05 03:58:04;;;;;;;10.30;6.60;;;13.00;99.90;;;;;;5026357;28;20030;-64
2022/07/05 04:00:30;;;;;;;9.60;7.75;;;13.00;99.90;;;;;;5027505;28;20038;-64
2022/07/05 04:02:56;;;;;;;10.05;7.70;;;13.10;99.90;;;;;;5023903;28;20503;-65
2022/07/05 04:05:22;;;;;;;9.30;7.18;;;13.10;99.90;;;;;;5029023;28;20551;-64
2022/07/05 04:07:56;;;;;;;8.80;7.13;;;13.20;99.90;;;;;;5033688;28;20076;-66
2022/07/05 04:10:23;;;;;;;9.80;7.22;;;13.20;99.90;;;;;;5013094;28;20079;-64
2022/07/05 04:12:48;;;;;;;9.90;7.82;;;13.30;99.90;;;;;;5028000;28;20037;-64
2022/07/05 04:15:15;;;;;;;8.98;7.75;;;13.30;99.90;;;;;;5024530;28;20041;-64
2022/07/05 04:17:54;;;;;;;9.57;7.68;;;13.40;99.90;;;;;;5023939;28;20116;-64
2022/07/05 04:20:21;;;;;;;9.98;8.52;;;13.40;99.90;;;;;;5021009;28;20116;-64
2022/07/05 04:22:47;;;;;;;10.30;7.45;;;13.50;99.90;;;;;;5025056;28;20061;-64
2022/07/05 04:25:16;;;;;;;9.73;8.18;;;13.50;99.90;;;;;;5021063;28;20033;-64
2022/07/05 04:27:52;;;;;;;9.27;8.15;;;13.60;99.90;;;;;;5018691;28;20057;-64
2022/07/05 04:30:20;;;;;;;10.60;8.38;;;13.60;99.90;;;;;;5023724;28;20491;-64
2022/07/05 04:32:46;;;;;;;8.98;7.53;;;13.70;99.90;;;;;;5025263;28;20049;-64
2022/07/05 04:35:12;;;;;;;9.52;8.30;;;13.70;99.90;;;;;;5021397;28;20056;-64
2022/07/05 04:37:38;;;;;;;12.75;8.20;;;13.80;99.90;;;;;;5018743;28;20072;-64
2022/07/05 04:40:07;;;;;;;13.23;8.55;;;13.80;99.90;;;;;;5020685;28;20124;-64
2022/07/05 04:42:32;;;;;;;10.13;8.73;;;13.90;99.90;;;;;;5025892;28;20034;-64
2022/07/05 04:44:58;;;;;;;9.70;7.93;;;13.90;99.90;;;;;;5022514;28;20164;-64
2022/07/05 04:47:27;;;;;;;10.18;8.48;;;14.00;99.90;;;;;;5025580;28;20050;-64
2022/07/05 04:49:53;;;;;;;9.95;7.88;;;14.00;99.90;;;;;;5035301;28;20052;-64
2022/07/05 04:52:19;;;;;;;10.30;8.18;;;14.00;99.90;;;;;;5028394;28;20064;-65
2022/07/05 04:54:45;;;;;;;11.48;8.43;;;14.10;99.90;;;;;;5027764;28;20301;-65
2022/07/05 04:57:11;;;;;;;10.65;7.90;;;14.10;99.90;;;;;;5030777;28;20033;-65
2022/07/05 04:59:37;;;;;;;13.02;8.55;;;14.20;99.90;;;;;;5022525;28;20096;-66
2022/07/05 05:02:03;;;;;;;10.25;8.57;;;14.20;99.90;;;;;;5016332;28;20054;-64
2022/07/05 05:04:31;;;;;;;11.32;7.97;;;14.20;99.90;;;;;;5032580;28;20026;-64
2022/07/05 05:06:58;;;;;;;9.65;7.78;;;14.30;99.90;;;;;;5021897;28;20049;-64
2022/07/05 05:09:24;;;;;;;9.15;8.10;;;14.30;99.90;;;;;;5021323;28;20041;-65
2022/07/05 05:11:50;;;;;;;10.63;7.90;;;14.40;99.90;;;;;;5023437;28;20088;-66
2022/07/05 05:14:15;;;;;;;9.75;8.27;;;14.40;99.90;;;;;;5032465;28;20033;-64
2022/07/05 05:16:41;;;;;;;11.60;8.00;;;14.50;99.90;;;;;;5026414;28;20085;-64
2022/07/05 05:19:07;;;;;;;10.75;8.45;;;14.60;99.90;;;;;;5013542;28;20045;-64
2022/07/05 05:21:32;;;;;;;12.55;8.88;;;14.60;99.90;;;;;;5024332;28;20496;-64
2022/07/05 05:23:58;;;;;;;12.70;8.73;;;14.70;99.90;;;;;;5026736;28;20073;-66
2022/07/05 05:26:24;;;;;;;14.68;9.25;;;14.70;99.90;;;;;;5028962;28;20083;-64
2022/07/05 05:28:50;;;;;;;10.25;8.30;;;14.70;99.90;;;;;;5027281;28;20037;-64
2022/07/05 05:31:17;;;;;;;10.35;8.75;;;14.80;99.90;;;;;;5023763;28;20037;-64
2022/07/05 05:33:43;;;;;;;15.02;8.80;;;14.80;99.90;;;;;;5022133;28;20405;-64
2022/07/05 05:36:08;;;;;;;14.35;8.75;;;14.80;99.90;;;;;;5023630;28;20044;-65
2022/07/05 05:38:34;;;;;;;12.88;8.70;;;14.80;99.90;;;;;;5015748;28;20586;-65
2022/07/05 05:41:00;;;;;;;12.57;8.30;;;14.80;99.90;;;;;;5022652;28;20612;-64
2022/07/05 05:43:26;;;;;;;11.05;8.48;;;14.80;99.90;;;;;;5025541;28;20373;-64
2022/07/05 05:45:51;;;;;;;12.30;8.43;;;14.80;99.90;;;;;;5030173;28;20037;-64
2022/07/05 05:48:18;;;;;;;13.30;8.50;;;14.80;99.90;;;;;;5023538;28;20037;-64
2022/07/05 05:50:44;;;;;;;11.10;8.82;;;14.80;99.90;;;;;;5026700;28;20048;-65
2022/07/05 05:53:09;;;;;;;13.90;8.70;;;14.80;99.90;;;;;;5019648;28;20029;-64
2022/07/05 05:55:35;;;;;;;15.98;8.75;;;14.90;99.90;;;;;;5014256;28;20493;-65
2022/07/05 05:58:18;;;;;;;12.98;8.68;;;14.90;99.90;;;;;;5016060;28;20548;-64
2022/07/05 06:00:47;;;;;;;13.25;9.23;;;14.90;99.90;;;;;;5017523;28;20030;-67
2022/07/05 06:03:14;;;;;;;10.45;8.43;;;14.90;99.90;;;;;;5027033;28;20052;-64
2022/07/05 06:05:39;;;;;;;11.95;8.48;;;15.00;99.90;;;;;;5030030;28;20419;-64
2022/07/05 06:08:05;;;;;;;10.73;8.07;;;15.00;99.90;;;;;;5027832;28;20049;-67
2022/07/05 06:10:33;;;;;;;12.85;8.23;;;15.10;99.90;;;;;;5017982;28;20049;-64
2022/07/05 06:13:01;;;;;;;10.95;8.63;;;15.10;99.90;;;;;;5020672;28;20068;-65
2022/07/05 06:15:27;;;;;;;13.20;8.13;;;15.10;99.90;;;;;;5024600;28;20484;-64
2022/07/05 06:17:52;;;;;;;11.15;7.53;;;15.20;99.90;;;;;;5035648;28;20037;-64
2022/07/05 06:20:24;;;;;;;12.95;7.95;;;15.30;99.90;;;;;;5022514;28;20042;-65
2022/07/05 06:22:51;;;;;;;11.82;7.03;;;15.30;99.90;;;;;;5031641;28;20037;-65
2022/07/05 06:25:17;;;;;;;11.93;6.55;;;15.40;99.90;;;;;;5031487;28;20048;-64
2022/07/05 06:27:45;;;;;;;10.90;5.90;;;15.50;99.90;;;;;;5026920;28;20404;-64
2022/07/05 06:30:14;;;;;;;9.50;6.50;;;15.60;99.90;;;;;;5034317;28;20111;-64
2022/07/05 06:32:40;;;;;;;8.63;5.78;;;15.70;99.90;;;;;;5024142;28;20045;-65
2022/07/05 06:35:06;;;;;;;11.25;6.05;;;15.70;99.90;;;;;;5028736;28;20049;-64
2022/07/05 06:37:53;;;;;;;9.95;6.10;;;15.80;99.90;;;;;;5030119;28;20321;-65
2022/07/05 06:40:25;;;;;;;8.00;5.22;;;15.80;99.90;;;;;;5026236;28;20046;-64
2022/07/05 06:42:52;;;;;;;10.40;5.53;;;15.80;99.90;;;;;;5029257;28;20041;-65
2022/07/05 06:45:17;;;;;;;9.05;4.65;;;16.00;99.90;;;;;;5020590;28;20064;-64
2022/07/05 06:47:43;;;;;;;9.82;5.20;;;16.00;99.90;;;;;;5028895;28;20073;-65
2022/07/05 06:50:10;;;;;;;9.45;4.55;;;16.10;99.90;;;;;;5022904;28;20041;-65
2022/07/05 06:52:36;;;;;;;8.65;4.50;;;16.20;99.90;;;;;;5026339;28;20045;-65
2022/07/05 06:55:04;;;;;;;7.85;4.35;;;16.20;99.90;;;;;;5028323;28;20404;-65
2022/07/05 06:57:29;;;;;;;7.40;4.13;;;16.30;99.90;;;;;;5021422;28;20056;-65
2022/07/05 06:59:56;;;;;;;8.90;3.67;;;16.30;99.90;;;;;;5031008;28;20073;-65
2022/07/05 07:02:22;;;;;;;9.82;4.13;;;16.40;99.90;;;;;;5028965;28;20124;-65
2022/07/05 07:04:48;;;;;;;7.88;3.40;;;16.50;99.90;;;;;;5024809;28;20120;-65
2022/07/05 07:09:59;;;;;;;8.35;3.10;;;16.80;99.90;;;;;;5026495;28;20045;-65
2022/07/05 07:12:25;;;;;;;5.70;2.55;;;16.80;99.90;;;;;;5020811;28;20222;-65
2022/07/05 07:14:51;;;;;;;6.85;2.67;;;16.90;99.90;;;;;;5027575;28;20037;-65
2022/07/05 07:17:17;;;;;;;6.68;2.55;;;17.00;99.90;;;;;;5025614;28;20030;-65
2022/07/05 07:19:42;;;;;;;3.75;1.88;;;17.10;99.90;;;;;;5024324;28;20048;-65
2022/07/05 07:22:08;;;;;;;4.05;1.80;;;17.20;99.90;;;;;;5022382;28;20034;-64
2022/07/05 07:24:33;;;;;;;4.15;1.85;;;17.30;99.90;;;;;;5026604;28;20034;-65
2022/07/05 07:27:06;;;;;;;5.60;2.05;;;17.40;99.90;;;;;;5026984;28;20107;-67
2022/07/05 07:29:33;;;;;;;4.53;1.70;;;17.40;99.90;;;;;;5024060;28;20091;-65
2022/07/05 07:32:00;;;;;;;4.50;1.80;;;17.40;99.90;;;;;;5021314;28;20038;-65
2022/07/05 07:34:26;;;;;;;3.50;1.92;;;17.40;99.90;;;;;;5031162;28;20573;-64
2022/07/05 07:36:53;;;;;;;3.60;1.73;;;17.40;99.90;;;;;;5026817;28;20167;-64
2022/07/05 07:39:19;;;;;;;8.45;1.98;;;17.50;99.90;;;;;;5021359;28;20385;-64
2022/07/05 07:41:44;;;;;;;6.57;1.90;;;17.50;99.90;;;;;;5029797;28;20112;-65
2022/07/05 07:44:10;;;;;;;4.15;1.90;;;17.50;99.90;;;;;;5027128;28;20121;-65
2022/07/05 07:46:36;;;;;;;3.20;1.60;;;17.50;99.90;;;;;;5029337;28;20048;-64
2022/07/05 07:49:02;;;;;;;6.55;1.95;;;17.50;99.90;;;;;;5027332;28;20042;-64
2022/07/05 07:51:29;;;;;;;4.85;1.52;;;17.60;99.90;;;;;;5023263;28;20491;-65
2022/07/05 07:53:55;;;;;;;2.78;1.40;;;17.50;99.90;;;;;;5024542;28;20036;-65
2022/07/05 07:56:20;;;;;;;3.63;1.70;;;17.60;99.90;;;;;;5018974;28;20116;-65
2022/07/05 07:58:49;;;;;;;3.85;1.45;;;17.70;99.90;;;;;;5028050;28;20029;-67
2022/07/05 08:01:15;;;;;;;7.60;1.50;;;17.70;99.90;;;;;;5029472;28;20037;-65
2022/07/05 08:03:41;;;;;;;5.50;1.65;;;17.80;99.90;;;;;;5017592;28;20041;-66
2022/07/05 08:06:07;;;;;;;4.70;1.73;;;17.90;99.90;;;;;;5036981;28;20072;-67
2022/07/05 08:08:34;;;;;;;3.25;1.55;;;18.00;99.90;;;;;;5017563;28;20462;-65
2022/07/05 08:11:00;;;;;;;5.78;1.70;;;18.00;99.90;;;;;;5022509;28;20038;-64
2022/07/05 08:13:26;;;;;;;3.70;1.60;;;18.10;99.90;;;;;;5020133;28;20033;-64
2022/07/05 08:15:52;;;;;;;3.75;1.58;;;18.10;99.90;;;;;;5028631;28;20431;-64
2022/07/05 08:23:46;;;;;;;3.25;1.63;;;18.30;99.90;;;;;;5023701;28;20041;-65
2022/07/05 08:26:12;;;;;;;3.00;1.35;;;18.30;99.90;;;;;;5032563;28;20055;-64
2022/07/05 08:28:37;;;;;;;6.75;1.48;;;18.40;99.90;;;;;;5024784;28;20123;-65
2022/07/05 08:31:03;;;;;;;5.10;1.73;;;18.50;99.90;;;;;;5027393;28;20472;-65
2022/07/05 08:33:29;;;;;;;3.90;1.30;;;18.60;99.90;;;;;;5026846;28;20106;-64
2022/07/05 08:35:54;;;;;;;6.32;1.40;;;18.70;99.90;;;;;;5030504;28;20071;-65
2022/07/05 08:38:20;;;;;;;2.88;1.27;;;19.00;99.90;;;;;;5027562;28;20041;-65
2022/07/05 08:40:49;;;;;;;4.90;1.35;;;19.20;99.90;;;;;;5024329;28;20401;-64
2022/07/05 08:43:16;;;;;;;2.85;1.42;;;19.40;99.90;;;;;;5019860;28;20159;-65
2022/07/05 08:45:45;;;;;;;6.63;1.95;;;19.70;99.90;;;;;;5022641;28;20396;-66
2022/07/05 08:48:12;;;;;;;3.88;1.25;;;19.80;99.90;;;;;;5025142;28;20112;-65
2022/07/05 08:50:40;;;;;;;4.28;1.48;;;19.80;99.90;;;;;;5021705;28;20041;-65
2022/07/05 08:53:06;;;;;;;3.50;1.33;;;19.60;99.90;;;;;;5030552;28;20041;-64
2022/07/05 08:55:33;;;;;;;3.83;1.10;;;19.60;99.90;;;;;;5022230;28;20030;-65
2022/07/05 08:57:59;;;;;;;3.95;1.55;;;19.70;99.90;;;;;;5023116;28;20476;-65
2022/07/05 09:00:25;;;;;;;4.07;1.30;;;19.80;99.90;;;;;;5026292;28;20479;-64
2022/07/05 09:02:51;;;;;;;6.18;1.30;;;19.90;99.90;;;;;;5029519;28;20068;-64
2022/07/05 09:05:20;;;;;;;2.90;1.40;;;20.00;99.80;;;;;;5035216;28;20042;-64
2022/07/05 09:07:57;;;;;;;3.47;1.50;;;20.00;99.90;;;;;;5030567;28;20050;-67
2022/07/05 09:10:26;;;;;;;2.70;1.15;;;20.20;99.30;;;;;;5028795;28;20117;-64
2022/07/05 09:12:53;;;;;;;4.38;1.30;;;20.40;99.80;;;;;;5029461;28;20049;-64
2022/07/05 09:15:19;;;;;;;5.05;1.30;;;20.60;99.30;;;;;;5025588;28;20081;-65
2022/07/05 09:17:45;;;;;;;3.40;1.23;;;20.40;98.30;;;;;;5023828;28;20072;-64
2022/07/05 09:20:14;;;;;;;3.60;1.30;;;20.20;98.10;;;;;;5022937;28;20033;-64
2022/07/05 09:22:54;;;;;;;3.17;1.20;;;20.30;98.50;;;;;;5029872;28;20037;-64
2022/07/05 09:25:23;;;;;;;5.30;1.20;;;20.70;97.20;;;;;;5026576;28;20095;-67
2022/07/05 09:27:51;;;;;;;6.97;1.35;;;20.70;97.20;;;;;;5016278;28;20037;-64
2022/07/05 09:30:38;;;;;;;5.70;1.83;;;20.50;96.90;;;;;;5023026;28;20087;-66
2022/07/05 09:33:05;;;;;;;2.75;1.20;;;20.40;97.10;;;;;;5027774;28;20559;-64
2022/07/05 09:35:32;;;;;;;2.75;1.20;;;20.70;98.00;;;;;;5019572;28;20041;-64
2022/07/05 09:37:57;;;;;;;3.47;1.27;;;21.20;97.60;;;;;;5028104;28;20041;-64
2022/07/05 09:40:23;;;;;;;3.97;1.40;;;21.50;97.20;;;;;;5017430;28;20041;-67
2022/07/05 09:42:49;;;;;;;5.07;1.30;;;21.70;96.70;;;;;;5029686;28;20485;-64
2022/07/05 09:45:23;;;;;;;5.95;1.48;;;21.60;95.60;;;;;;5029960;28;20484;-64
2022/07/05 09:47:49;;;;;;;3.65;1.30;;;21.40;94.60;;;;;;5042498;28;20059;-64
2022/07/05 09:50:14;;;;;;;3.78;1.20;;;21.20;95.20;;;;;;5019773;28;20045;-64
2022/07/05 09:52:41;;;;;;;4.05;1.50;;;21.10;95.60;;;;;;5030307;28;20099;-64
2022/07/05 09:55:11;;;;;;;4.57;1.50;;;21.40;96.30;;;;;;5016260;28;20120;-63
2022/07/05 09:57:41;;;;;;;7.00;1.65;;;21.50;95.60;;;;;;5024744;28;20046;-64
2022/07/05 10:00:11;;;;;;;3.50;1.33;;;21.60;95.40;;;;;;5022151;28;20046;-64
2022/07/05 10:02:41;;;;;;;4.00;1.08;;;21.70;95.00;;;;;;5032820;28;20090;-64
2022/07/05 10:05:14;;;;;;;4.20;1.52;;;21.70;94.80;;;;;;5020474;28;20053;-64
2022/07/05 10:07:45;;;;;;;5.07;1.60;;;21.60;94.10;;;;;;5020999;28;20069;-69
2022/07/05 10:10:16;;;;;;;6.30;2.10;;;21.40;94.40;;;;;;5020712;28;20042;-66
2022/07/05 10:12:43;;;;;;;4.28;1.63;;;21.20;94.40;;;;;;5024728;28;20056;-64
2022/07/05 10:15:12;;;;;;;5.13;1.85;;;21.00;94.50;;;;;;5027344;28;20033;-65
2022/07/05 10:18:01;;;;;;;3.97;1.52;;;20.80;94.80;;;;;;5041134;28;20175;-69
2022/07/05 10:20:46;;;;;;;5.68;1.80;;;20.70;95.10;;;;;;5019758;28;20508;-64
2022/07/05 10:23:18;;;;;;;3.15;1.45;;;20.90;95.80;;;;;;5026422;28;20030;-64
2022/07/05 10:25:49;;;;;;;4.40;1.60;;;21.30;95.80;;;;;;5024771;28;20280;-64
2022/07/05 10:28:19;;;;;;;5.00;1.85;;;21.60;94.60;;;;;;5028724;28;20046;-64
2022/07/05 10:30:49;;;;;;;2.25;1.30;;;21.90;94.40;;;;;;5025650;28;20460;-63
2022/07/05 10:33:20;;;;;;;3.40;1.58;;;22.00;93.80;;;;;;5025499;28;20072;-65
2022/07/05 10:35:47;;;;;;;4.50;1.45;;;22.00;93.50;;;;;;5027660;28;20125;-64
2022/07/05 10:38:13;;;;;;;3.15;1.58;;;22.00;93.40;;;;;;5027848;28;20041;-65
2022/07/05 10:40:42;;;;;;;4.57;1.60;;;21.90;93.10;;;;;;5027658;28;20083;-66
2022/07/05 10:43:10;;;;;;;7.50;1.50;;;21.70;93.20;;;;;;5025049;28;20036;-64
2022/07/05 10:45:38;;;;;;;4.25;1.40;;;21.50;93.90;;;;;;5028000;28;20052;-64
2022/07/05 10:48:10;;;;;;;4.85;1.42;;;21.40;93.90;;;;;;5023923;28;20038;-64
2022/07/05 10:50:47;;;;;;;1.63;1.33;;;21.30;94.40;;;;;;5027406;28;20423;-63
2022/07/05 10:53:14;;;;;;;6.50;1.45;;;21.50;94.50;;;;;;5031421;28;20076;-65
2022/07/05 10:55:51;;;;;;;5.80;1.27;;;21.60;94.50;;;;;;5023129;28;20040;-64
2022/07/05 10:58:17;;;;;;;2.88;1.40;;;21.50;94.10;;;;;;5026641;28;20033;-64
2022/07/05 11:00:43;;;;;;;3.30;1.30;;;21.40;94.10;;;;;;5037665;28;20053;-64
2022/07/05 11:03:32;;;;;;;4.60;1.45;;;21.30;94.40;;;;;;5025639;28;20091;-64
2022/07/05 11:05:57;;;;;;;4.85;1.50;;;21.30;94.80;;;;;;5013007;28;20440;-66
2022/07/05 11:08:23;;;;;;;4.05;1.33;;;21.50;95.20;;;;;;5028855;28;20041;-64
2022/07/05 11:11:11;;;;;;;5.38;2.10;;;21.40;95.10;;;;;;5021924;28;20068;-64
2022/07/05 11:13:37;;;;;;;3.97;1.65;;;21.40;95.00;;;;;;5021028;28;20048;-65
2022/07/05 11:16:22;;;;;;;3.03;1.40;;;21.40;95.30;;;;;;5029961;28;20033;-64
2022/07/05 11:19:03;;;;;;;6.63;1.55;;;21.30;95.20;;;;;;5022879;28;20087;-64
2022/07/05 11:21:29;;;;;;;6.03;1.63;;;21.30;95.20;;;;;;5022959;28;20037;-64
2022/07/05 11:24:25;;;;;;;4.90;1.58;;;21.10;95.00;;;;;;5026526;28;20026;-64
2022/07/05 11:26:54;;;;;;;4.43;1.58;;;21.00;94.50;;;;;;5025492;28;20110;-64
2022/07/05 11:29:44;;;;;;;5.68;1.83;;;20.80;94.90;;;;;;5026308;28;20041;-63
2022/07/05 11:32:18;;;;;;;5.28;1.65;;;20.70;94.70;;;;;;5025126;28;20041;-64
2022/07/05 11:34:46;;;;;;;3.88;1.15;;;20.80;95.10;;;;;;5030519;28;20485;-64
2022/07/05 11:37:28;;;;;;;3.22;1.27;;;21.10;95.50;;;;;;5023761;28;20051;-68
2022/07/05 11:40:05;;;;;;;3.53;1.55;;;21.70;95.30;;;;;;5026417;28;20037;-64
2022/07/05 11:42:33;;;;;;;5.03;1.40;;;22.00;95.00;;;;;;5025201;28;20040;-64
2022/07/05 11:44:59;;;;;;;4.38;1.50;;;22.40;94.80;;;;;;5031659;28;20423;-66
2022/07/05 11:47:26;;;;;;;5.05;1.38;;;22.80;94.40;;;;;;5020993;28;20096;-64
2022/07/05 11:49:58;;;;;;;4.22;1.42;;;23.20;94.00;;;;;;5030569;28;20431;-64
2022/07/05 11:52:28;;;;;;;3.03;1.35;;;23.50;92.80;;;;;;5029030;28;20053;-64
2022/07/05 11:54:55;;;;;;;6.00;1.58;;;23.50;92.00;;;;;;5022064;28;20044;-64
2022/07/05 11:57:21;;;;;;;3.10;1.42;;;23.50;91.20;;;;;;5019677;28;20087;-64
2022/07/05 11:59:47;;;;;;;3.75;1.38;;;23.70;91.20;;;;;;5024423;28;20041;-69
2022/07/05 12:02:13;;;;;;;4.55;1.20;;;23.80;90.60;;;;;;5033555;28;20133;-64
2022/07/05 12:04:39;;;;;;;5.50;1.40;;;24.00;90.60;;;;;;5028794;28;20040;-64
2022/07/05 12:07:04;;;;;;;2.30;1.10;;;24.10;90.10;;;;;;5023599;28;20053;-64
2022/07/05 12:15:03;;;;;;;3.20;1.20;;;23.90;84.20;;;;;;5018525;28;20049;-68
2022/07/05 12:17:29;;;;;;;2.92;1.20;;;24.10;83.80;;;;;;5021248;28;20381;-67
2022/07/05 12:19:55;;;;;;;4.68;1.70;;;24.00;83.40;;;;;;5024302;28;20613;-64
2022/07/05 12:22:35;;;;;;;2.75;1.10;;;24.00;82.00;;;;;;5033137;28;20091;-64
2022/07/05 12:25:03;;;;;;;3.55;1.00;;;24.10;81.70;;;;;;5021903;28;20045;-64
2022/07/05 12:27:30;;;;;;;4.05;1.10;;;24.20;81.30;;;;;;5031489;28;20053;-64
2022/07/05 12:29:56;;;;;;;2.80;1.05;;;24.40;80.80;;;;;;5024539;28;20369;-65
2022/07/05 12:32:22;;;;;;;2.53;1.00;;;24.40;78.80;;;;;;5027987;28;20083;-65
2022/07/05 12:34:48;;;;;;;2.22;1.10;;;24.30;77.10;;;;;;5030677;28;20120;-69
2022/07/05 12:37:24;;;;;;;3.28;1.20;;;24.20;76.50;;;;;;5027007;28;20057;-71
2022/07/05 12:40:01;;;;;;;4.57;1.25;;;24.20;75.00;;;;;;5024020;28;20053;-66
2022/07/05 12:42:38;;;;;;;1.98;0.88;;;24.30;75.90;;;;;;5032390;28;20041;-64
2022/07/05 12:45:11;;;;;;;4.28;1.00;;;24.30;73.40;;;;;;5032143;28;20033;-64
2022/07/05 12:47:53;;;;;;;2.35;0.90;;;24.20;73.40;;;;;;5023225;28;20043;-64
2022/07/05 12:50:28;;;;;;;3.45;0.98;;;24.20;71.90;;;;;;5016226;28;20052;-64
2022/07/05 12:58:01;;;;;;;2.72;1.05;;;24.30;73.20;;;;;;5029290;28;20065;-64
2022/07/05 12:58:46;;;;;;;2.17;0.90;;;24.50;72.70;;;;;;5020713;28;20046;-65
2022/07/05 13:01:28;;;;;;;1.50;0.90;;;24.60;72.40;;;;;;5030052;28;20041;-65
2022/07/05 13:04:06;;;;;;;2.30;0.90;;;24.60;70.90;;;;;;5025082;28;20042;-65
2022/07/05 13:06:56;;;;;;;2.05;0.90;;;24.40;71.40;;;;;;5029707;28;20064;-65